createdAt,value
2019-03-06T00:01:28.862Z,98605.05
2019-03-06T00:03:57.975Z,98606.59
2019-03-06T00:06:27.097Z,98601.83
2019-03-06T00:08:56.127Z,98602.67
2019-03-06T00:11:25.151Z,98607.13
2019-03-06T00:13:54.192Z,98597.05
2019-03-06T00:16:23.261Z,98595.12
2019-03-06T00:18:52.320Z,98593.45
2019-03-06T00:21:21.358Z,98592.59
2019-03-06T00:23:50.466Z,98597.64
2019-03-06T00:26:19.497Z,98601.70
2019-03-06T00:28:50.607Z,98596.55
2019-03-06T00:31:19.634Z,98590.73
2019-03-06T00:33:48.739Z,98587.44
2019-03-06T00:36:22.426Z,98583.52
2019-03-06T00:38:51.463Z,98580.69
2019-03-06T00:41:45.788Z,98577.08
2019-03-06T00:44:16.898Z,98575.37
2019-03-06T00:46:45.968Z,98569.64
2019-03-06T00:49:15.018Z,98568.44
2019-03-06T00:51:44.101Z,98564.98
2019-03-06T00:54:13.218Z,98564.48
2019-03-06T00:56:42.278Z,98565.45
2019-03-06T00:59:11.357Z,98571.45
2019-03-06T01:01:40.403Z,98568.20
2019-03-06T01:04:09.457Z,98575.77
2019-03-06T01:06:38.538Z,98577.58
2019-03-06T01:09:08.044Z,98572.16
2019-03-06T01:11:37.195Z,98565.01
2019-03-06T01:14:06.299Z,98554.47
2019-03-06T01:16:35.375Z,98548.88
2019-03-06T01:19:04.419Z,98550.66
2019-03-06T01:21:33.468Z,98537.04
2019-03-06T01:24:02.518Z,98527.81
2019-03-06T01:26:31.588Z,98518.12
2019-03-06T01:29:00.627Z,98511.19
2019-03-06T01:31:29.737Z,98521.25
2019-03-06T01:34:23.501Z,98511.67
2019-03-06T01:37:29.985Z,98512.89
2019-03-06T01:40:18.064Z,98500.45
2019-03-06T01:42:54.662Z,98490.56
2019-03-06T01:45:23.691Z,98482.05
2019-03-06T01:47:54.741Z,98476.66
2019-03-06T01:50:23.763Z,98486.61
2019-03-06T01:52:55.513Z,98480.26
2019-03-06T01:55:24.488Z,98484.09
2019-03-06T01:57:53.592Z,98483.13
2019-03-06T02:00:22.811Z,98487.80
2019-03-06T02:02:51.877Z,98488.26
2019-03-06T02:05:20.865Z,98487.30
2019-03-06T02:07:49.934Z,98484.05
2019-03-06T02:10:18.991Z,98480.34
2019-03-06T02:12:51.751Z,98469.20
2019-03-06T02:15:21.223Z,98468.41
2019-03-06T02:17:50.334Z,98467.80
2019-03-06T02:20:19.436Z,98466.95
2019-03-06T02:22:51.435Z,98468.52
2019-03-06T02:25:20.465Z,98471.39
2019-03-06T02:27:49.573Z,98466.25
2019-03-06T02:30:20.508Z,98460.52
2019-03-06T02:32:50.895Z,98459.08
2019-03-06T02:35:20.007Z,98458.23
2019-03-06T02:37:49.113Z,98456.91
2019-03-06T02:40:20.376Z,98467.80
2019-03-06T02:42:49.452Z,98459.55
2019-03-06T02:45:18.500Z,98450.34
2019-03-06T02:47:47.708Z,98448.41
2019-03-06T02:50:16.762Z,98441.72
2019-03-06T02:52:45.836Z,98445.06
2019-03-06T02:55:15.118Z,98438.98
2019-03-06T02:57:50.768Z,98442.67
2019-03-06T03:00:47.545Z,98436.57
2019-03-06T03:03:36.657Z,98439.17
2019-03-06T03:06:10.036Z,98430.20
2019-03-06T03:08:39.091Z,98428.78
2019-03-06T03:11:08.155Z,98425.38
2019-03-06T03:13:38.151Z,98412.84
2019-03-06T03:16:09.513Z,98412.95
2019-03-06T03:18:39.153Z,98408.44
2019-03-06T03:21:08.210Z,98413.12
2019-03-06T03:23:37.274Z,98415.61
2019-03-06T03:26:06.323Z,98417.35
2019-03-06T03:28:35.377Z,98402.91
2019-03-06T03:31:04.458Z,98371.78
2019-03-06T03:33:38.458Z,98397.16
2019-03-06T03:36:08.570Z,98388.67
2019-03-06T03:38:37.682Z,98390.80
2019-03-06T03:41:06.718Z,98384.70
2019-03-06T03:43:36.035Z,98374.55
2019-03-06T03:46:05.318Z,98382.88
2019-03-06T03:48:34.513Z,98372.84
2019-03-06T03:51:03.677Z,98375.47
2019-03-06T03:53:32.777Z,98378.65
2019-03-06T03:56:01.860Z,98384.66
2019-03-06T03:58:30.921Z,98388.09
2019-03-06T04:00:59.961Z,98383.45
2019-03-06T04:03:29.129Z,98378.40
2019-03-06T04:05:58.172Z,98390.82
2019-03-06T04:08:27.281Z,98391.06
2019-03-06T04:10:56.380Z,98395.61
2019-03-06T04:13:26.529Z,98390.71
2019-03-06T04:15:55.597Z,98383.66
2019-03-06T04:18:24.745Z,98381.67
2019-03-06T04:20:53.848Z,98375.77
2019-03-06T04:23:22.863Z,98367.55
2019-03-06T04:25:51.960Z,98360.83
2019-03-06T04:28:21.032Z,98360.42
2019-03-06T04:30:53.167Z,98359.91
2019-03-06T04:33:22.327Z,98355.58
2019-03-06T04:35:51.363Z,98358.11
2019-03-06T04:38:20.397Z,98354.27
2019-03-06T04:40:51.774Z,98355.62
2019-03-06T04:43:20.849Z,98354.36
2019-03-06T04:45:49.974Z,98354.73
2019-03-06T04:48:18.975Z,98355.32
2019-03-06T04:50:48.328Z,98359.64
2019-03-06T04:53:17.345Z,98352.19
2019-03-06T04:55:50.436Z,98350.05
2019-03-06T04:58:19.770Z,98348.56
2019-03-06T05:00:48.846Z,98356.69
2019-03-06T05:03:17.905Z,98354.69
2019-03-06T05:05:47.109Z,98352.08
2019-03-06T05:08:17.209Z,98347.14
2019-03-06T05:10:48.887Z,98333.52
2019-03-06T05:13:17.850Z,98332.45
2019-03-06T05:15:46.918Z,98330.57
2019-03-06T05:18:27.849Z,98325.16
2019-03-06T05:20:57.035Z,98318.06
2019-03-06T05:23:26.076Z,98313.97
2019-03-06T05:25:55.206Z,98309.33
2019-03-06T05:28:24.294Z,98306.63
2019-03-06T05:30:53.329Z,98292.16
2019-03-06T05:33:25.520Z,98294.00
2019-03-06T05:36:40.458Z,98291.50
2019-03-06T05:39:10.839Z,98277.87
2019-03-06T05:41:40.157Z,98273.64
2019-03-06T05:44:09.219Z,98278.31
2019-03-06T05:46:38.358Z,98277.87
2019-03-06T05:49:07.527Z,98274.80
2019-03-06T05:51:36.653Z,98262.50
2019-03-06T05:54:05.713Z,98265.11
2019-03-06T05:56:34.773Z,98253.73
2019-03-06T05:59:04.965Z,98257.17
2019-03-06T06:01:34.267Z,98254.28
2019-03-06T06:04:03.291Z,98249.90
2019-03-06T06:06:32.341Z,98244.45
2019-03-06T06:09:01.361Z,98248.08
2019-03-06T06:11:30.512Z,98256.15
2019-03-06T06:13:59.631Z,98247.13
2019-03-06T06:16:28.689Z,98246.36
2019-03-06T06:18:57.694Z,98243.20
2019-03-06T06:21:54.575Z,98244.35
2019-03-06T06:24:27.619Z,98238.55
2019-03-06T06:26:59.036Z,98236.59
2019-03-06T06:29:30.278Z,98238.09
2019-03-06T06:31:59.709Z,98233.45
2019-03-06T06:34:30.026Z,98241.71
2019-03-06T06:36:59.176Z,98225.55
2019-03-06T06:39:30.265Z,98227.11
2019-03-06T06:41:59.310Z,98221.42
2019-03-06T06:44:29.746Z,98215.34
2019-03-06T06:46:58.791Z,98215.21
2019-03-06T06:49:27.895Z,98217.63
2019-03-06T06:52:28.855Z,98217.00
2019-03-06T06:55:27.157Z,98208.80
2019-03-06T06:58:18.674Z,98202.14
2019-03-06T07:01:36.646Z,98203.96
2019-03-06T07:04:47.684Z,98213.84
2019-03-06T07:07:41.596Z,98208.14
2019-03-06T07:10:28.154Z,98199.89
2019-03-06T07:13:16.212Z,98204.42
2019-03-06T07:16:19.135Z,98042.91
2019-03-06T07:19:19.762Z,98196.49
2019-03-06T07:22:07.911Z,98193.08
2019-03-06T07:24:59.056Z,98189.94
2019-03-06T07:27:47.309Z,98185.51
2019-03-06T07:30:44.333Z,98167.92
2019-03-06T07:33:20.029Z,98168.80
2019-03-06T07:36:27.432Z,98165.58
2019-03-06T07:39:00.150Z,98168.92
2019-03-06T07:41:51.779Z,98173.58
2019-03-06T07:44:36.310Z,98169.16
2019-03-06T07:47:23.179Z,98174.06
2019-03-06T07:50:14.375Z,98174.77
2019-03-06T07:53:02.474Z,98137.66
2019-03-06T07:55:50.810Z,98175.61
2019-03-06T07:59:06.005Z,98175.47
2019-03-06T08:01:41.818Z,98165.20
2019-03-06T08:04:13.061Z,98163.38
2019-03-06T08:06:45.026Z,98160.89
2019-03-06T08:09:19.395Z,98153.77
2019-03-06T08:12:11.518Z,98155.16
2019-03-06T08:15:02.741Z,98164.45
2019-03-06T08:17:50.713Z,98152.46
2019-03-06T08:20:37.376Z,98139.52
2019-03-06T08:23:31.175Z,98133.34
2019-03-06T08:26:00.184Z,98136.31
2019-03-06T08:28:29.219Z,98124.84
2019-03-06T08:31:26.620Z,98121.57
2019-03-06T08:33:55.656Z,98119.94
2019-03-06T08:36:24.732Z,98111.86
2019-03-06T08:38:54.972Z,98106.00
2019-03-06T08:41:24.035Z,98106.15
2019-03-06T08:43:53.218Z,98100.52
2019-03-06T08:46:42.004Z,98100.70
2019-03-06T08:49:30.155Z,98091.62
2019-03-06T08:52:24.357Z,98085.78
2019-03-06T08:55:17.887Z,98086.82
2019-03-06T08:58:11.510Z,98084.12
2019-03-06T09:01:09.939Z,98074.77
2019-03-06T09:04:16.310Z,98075.75
2019-03-06T09:06:51.807Z,98070.49
2019-03-06T09:09:42.814Z,98061.41
2019-03-06T09:12:29.842Z,98053.36
2019-03-06T09:15:16.770Z,98048.02
2019-03-06T09:18:10.801Z,98049.52
2019-03-06T09:21:08.073Z,98040.73
2019-03-06T09:23:54.643Z,98042.89
2019-03-06T09:26:33.488Z,98032.75
2019-03-06T09:29:20.043Z,98032.80
2019-03-06T09:32:20.108Z,98031.70
2019-03-06T09:35:01.701Z,98021.40
2019-03-06T09:37:54.800Z,98023.89
2019-03-06T09:40:51.185Z,98010.48
2019-03-06T09:43:41.078Z,98011.33
2019-03-06T09:46:39.607Z,98006.95
2019-03-06T09:49:20.580Z,98005.03
2019-03-06T09:52:02.859Z,97993.58
2019-03-06T09:54:47.366Z,97990.09
2019-03-06T09:57:24.853Z,97983.30
2019-03-06T10:00:03.475Z,97978.84
2019-03-06T10:02:43.734Z,97967.70
2019-03-06T10:05:22.995Z,97965.37
2019-03-06T10:08:04.317Z,97966.54
2019-03-06T10:10:58.250Z,97964.11
2019-03-06T10:13:52.263Z,97954.56
2019-03-06T10:16:29.531Z,97962.14
2019-03-06T10:19:13.475Z,97952.38
2019-03-06T10:21:42.640Z,97946.77
2019-03-06T10:24:11.717Z,97933.20
2019-03-06T10:26:42.397Z,97936.75
2019-03-06T10:29:11.449Z,97927.20
2019-03-06T10:31:40.565Z,97914.02
2019-03-06T10:34:09.636Z,97909.53
2019-03-06T10:36:38.768Z,97910.55
2019-03-06T10:39:10.336Z,97910.56
2019-03-06T10:41:39.377Z,97906.14
2019-03-06T10:44:11.208Z,97900.80
2019-03-06T10:46:40.318Z,97898.27
2019-03-06T10:49:09.406Z,97902.36
2019-03-06T10:51:38.505Z,97896.79
2019-03-06T10:54:07.577Z,97902.03
2019-03-06T10:56:36.607Z,97892.33
2019-03-06T10:59:06.081Z,97890.24
2019-03-06T11:01:35.193Z,97887.78
2019-03-06T11:04:22.148Z,97887.20
2019-03-06T11:06:51.323Z,97885.39
2019-03-06T11:09:20.443Z,97878.58
2019-03-06T11:11:49.515Z,97875.57
2019-03-06T11:14:21.374Z,97878.73
2019-03-06T11:16:50.469Z,97876.78
2019-03-06T11:19:19.832Z,97867.44
2019-03-06T11:21:48.924Z,97862.99
2019-03-06T11:24:18.016Z,97864.41
2019-03-06T11:26:47.092Z,97860.37
2019-03-06T11:29:16.166Z,97857.09
2019-03-06T11:31:45.277Z,97850.72
2019-03-06T11:34:16.438Z,97846.11
2019-03-06T11:36:45.494Z,97835.97
2019-03-06T11:39:14.646Z,97835.27
2019-03-06T11:41:43.694Z,97820.81
2019-03-06T11:44:14.651Z,97818.34
2019-03-06T11:46:43.703Z,97818.25
2019-03-06T11:49:12.794Z,97813.20
2019-03-06T11:51:41.923Z,97808.20
2019-03-06T11:54:11.756Z,97803.09
2019-03-06T11:56:41.343Z,97800.95
2019-03-06T11:59:10.510Z,97795.58
2019-03-06T12:01:47.978Z,97781.97
2019-03-06T12:04:11.755Z,97773.55
2019-03-06T12:06:40.914Z,97769.14
2019-03-06T12:09:30.532Z,97773.99
2019-03-06T12:11:59.689Z,97761.36
2019-03-06T12:14:31.186Z,97747.67
2019-03-06T12:17:00.188Z,97741.12
2019-03-06T12:19:29.254Z,97737.52
2019-03-06T12:21:58.280Z,97717.17
2019-03-06T12:24:30.956Z,97718.88
2019-03-06T12:27:00.209Z,97718.93
2019-03-06T12:29:29.353Z,97710.06
2019-03-06T12:31:58.396Z,97707.80
2019-03-06T12:34:30.036Z,97711.05
2019-03-06T12:36:59.121Z,97719.90
2019-03-06T12:39:28.736Z,97722.27
2019-03-06T12:42:00.008Z,97711.48
2019-03-06T12:44:29.313Z,97708.72
2019-03-06T12:47:00.836Z,97709.59
2019-03-06T12:49:30.568Z,97698.44
2019-03-06T12:51:59.731Z,97697.75
2019-03-06T12:54:28.983Z,97698.28
2019-03-06T12:56:58.137Z,97679.88
2019-03-06T12:59:27.404Z,97691.63
2019-03-06T13:01:56.539Z,97674.20
2019-03-06T13:04:25.864Z,97676.05
2019-03-06T13:06:55.516Z,97676.47
2019-03-06T13:09:24.638Z,97669.29
2019-03-06T13:11:53.889Z,97666.52
2019-03-06T13:14:23.357Z,97668.41
2019-03-06T13:16:52.732Z,97661.61
2019-03-06T13:19:21.926Z,97665.22
2019-03-06T13:21:50.947Z,97653.83
2019-03-06T13:24:19.980Z,97645.63
2019-03-06T13:26:49.060Z,97652.45
2019-03-06T13:29:18.382Z,97653.30
2019-03-06T13:31:47.486Z,97651.99
2019-03-06T13:34:50.806Z,97634.04
2019-03-06T13:37:18.367Z,97636.72
2019-03-06T13:39:47.487Z,97637.28
2019-03-06T13:42:16.507Z,97635.95
2019-03-06T13:44:45.559Z,97625.03
2019-03-06T13:47:14.662Z,97613.91
2019-03-06T13:49:43.935Z,97621.31
2019-03-06T13:52:13.284Z,97615.36
2019-03-06T13:54:42.353Z,97607.61
2019-03-06T13:57:11.995Z,97606.89
2019-03-06T13:59:41.078Z,97604.46
2019-03-06T14:02:10.258Z,97601.86
2019-03-06T14:04:42.521Z,97600.44
2019-03-06T14:07:15.030Z,97604.45
2019-03-06T14:09:44.916Z,97603.50
2019-03-06T14:12:13.984Z,97611.84
2019-03-06T14:14:42.995Z,97605.34
2019-03-06T14:17:12.097Z,97608.32
2019-03-06T14:19:42.910Z,97601.98
2019-03-06T14:22:11.987Z,97602.13
2019-03-06T14:24:41.017Z,97603.59
2019-03-06T14:27:10.142Z,97596.28
2019-03-06T14:29:40.719Z,97592.44
2019-03-06T14:32:14.601Z,97591.55
2019-03-06T14:34:40.544Z,97576.36
2019-03-06T14:37:09.711Z,97586.48
2019-03-06T14:39:38.720Z,97587.34
2019-03-06T14:42:08.029Z,97588.31
2019-03-06T14:44:37.098Z,97591.89
2019-03-06T14:47:08.192Z,97579.10
2019-03-06T14:49:37.562Z,97580.74
2019-03-06T14:52:07.901Z,97586.73
2019-03-06T14:54:36.928Z,97582.20
2019-03-06T14:57:06.088Z,97592.60
2019-03-06T14:59:37.732Z,97590.73
2019-03-06T15:02:06.804Z,97585.80
2019-03-06T15:04:35.852Z,97585.97
2019-03-06T15:07:06.258Z,97588.53
2019-03-06T15:09:35.418Z,97594.88
2019-03-06T15:12:04.442Z,97601.53
2019-03-06T15:14:36.897Z,97597.69
2019-03-06T15:17:08.187Z,97597.19
2019-03-06T15:19:39.176Z,97601.58
2019-03-06T15:22:10.311Z,97601.91
2019-03-06T15:24:41.608Z,97601.30
2019-03-06T15:27:11.687Z,97606.52
2019-03-06T15:29:41.039Z,97590.58
2019-03-06T15:32:10.096Z,97592.26
2019-03-06T15:34:39.133Z,97586.33
2019-03-06T15:37:08.231Z,97579.16
2019-03-06T15:39:45.638Z,97584.62
2019-03-06T15:42:12.902Z,97578.02
2019-03-06T15:44:42.019Z,97577.45
2019-03-06T15:47:12.367Z,97583.52
2019-03-06T15:49:41.441Z,97582.78
2019-03-06T15:52:10.939Z,97583.09
2019-03-06T15:54:39.994Z,97577.91
2019-03-06T15:57:11.508Z,97574.00
2019-03-06T15:59:40.665Z,97581.97
2019-03-06T16:02:09.722Z,97582.50
2019-03-06T16:04:38.848Z,97588.02
2019-03-06T16:07:07.862Z,97586.23
2019-03-06T16:09:37.482Z,97586.91
2019-03-06T16:12:06.523Z,97583.76
2019-03-06T16:14:35.640Z,97588.43
2019-03-06T16:17:04.675Z,97587.80
2019-03-06T16:19:34.188Z,97584.12
2019-03-06T16:22:03.366Z,97578.17
2019-03-06T16:24:34.005Z,97586.66
2019-03-06T16:27:03.010Z,97580.20
2019-03-06T16:29:32.140Z,97579.11
2019-03-06T16:32:01.203Z,97568.63
2019-03-06T16:34:32.256Z,97565.62
2019-03-06T16:37:01.294Z,97569.70
2019-03-06T16:39:30.368Z,97565.39
2019-03-06T16:41:59.378Z,97568.53
2019-03-06T16:44:28.489Z,97566.80
2019-03-06T16:47:06.171Z,97561.03
2019-03-06T16:49:28.337Z,97556.10
2019-03-06T16:51:57.630Z,97541.72
2019-03-06T16:54:26.657Z,97539.63
2019-03-06T16:56:55.775Z,97527.17
2019-03-06T16:59:24.865Z,97532.22
2019-03-06T17:01:53.899Z,97528.45
2019-03-06T17:04:22.973Z,97526.78
2019-03-06T17:06:52.010Z,97517.53
2019-03-06T17:09:21.069Z,97510.23
2019-03-06T17:11:50.093Z,97506.97
2019-03-06T17:14:19.126Z,97501.87
2019-03-06T17:16:48.222Z,97506.17
2019-03-06T17:19:17.250Z,97498.62
2019-03-06T17:21:46.395Z,97498.30
2019-03-06T17:24:15.391Z,97495.97
2019-03-06T17:26:45.787Z,97492.54
2019-03-06T17:29:15.152Z,97490.69
2019-03-06T17:31:44.228Z,97498.80
2019-03-06T17:34:13.630Z,97490.41
2019-03-06T17:36:42.652Z,97484.66
2019-03-06T17:39:11.854Z,97480.73
2019-03-06T17:41:40.944Z,97469.07
2019-03-06T17:44:11.168Z,97454.61
2019-03-06T17:46:40.365Z,97444.30
2019-03-06T17:49:09.546Z,97437.22
2019-03-06T17:51:38.692Z,97445.39
2019-03-06T17:54:07.787Z,97444.30
2019-03-06T17:56:36.863Z,97435.73
2019-03-06T17:59:06.032Z,97441.39
2019-03-06T18:01:35.151Z,97438.27
2019-03-06T18:04:25.531Z,97437.64
2019-03-06T18:06:56.036Z,97439.02
2019-03-06T18:09:25.064Z,97434.27
2019-03-06T18:11:54.169Z,97437.66
2019-03-06T18:14:23.239Z,97432.81
2019-03-06T18:16:52.337Z,97430.16
2019-03-06T18:19:23.671Z,97415.77
2019-03-06T18:21:52.711Z,97413.86
2019-03-06T18:24:21.824Z,97413.16
2019-03-06T18:26:50.930Z,97416.83
2019-03-06T18:29:19.956Z,97420.95
2019-03-06T18:31:49.339Z,97414.02
2019-03-06T18:34:18.455Z,97412.75
2019-03-06T18:36:47.524Z,97416.36
2019-03-06T18:39:22.920Z,97411.38
2019-03-06T18:41:53.281Z,97405.26
2019-03-06T18:44:22.319Z,97404.08
2019-03-06T18:46:51.465Z,97413.31
2019-03-06T18:49:20.716Z,97408.33
2019-03-06T18:51:50.009Z,97402.71
2019-03-06T18:54:21.345Z,97395.19
2019-03-06T18:56:50.699Z,97394.28
2019-03-06T18:59:19.806Z,97401.75
2019-03-06T19:01:48.899Z,97404.89
2019-03-06T19:04:18.022Z,97399.52
2019-03-06T19:06:47.081Z,97393.40
2019-03-06T19:09:16.145Z,97382.47
2019-03-06T19:11:45.363Z,97380.44
2019-03-06T19:14:14.429Z,97030.42
2019-03-06T19:16:43.482Z,97381.93
2019-03-06T19:19:12.560Z,97366.50
2019-03-06T19:21:41.616Z,97366.58
2019-03-06T19:24:10.709Z,97359.66
2019-03-06T19:26:40.016Z,97359.41
2019-03-06T19:29:09.091Z,97365.87
2019-03-06T19:31:38.144Z,97361.42
2019-03-06T19:34:07.217Z,97345.05
2019-03-06T19:36:36.284Z,97351.28
2019-03-06T19:39:06.639Z,97344.21
2019-03-06T19:41:35.891Z,97334.27
2019-03-06T19:44:05.024Z,97191.67
2019-03-06T19:46:34.370Z,97328.59
2019-03-06T19:49:03.590Z,97321.01
2019-03-06T19:51:32.661Z,97330.09
2019-03-06T19:54:01.800Z,97187.50
2019-03-06T19:56:31.125Z,97331.09
2019-03-06T19:59:00.266Z,97335.34
2019-03-06T20:01:29.382Z,97338.76
2019-03-06T20:03:58.470Z,97335.61
2019-03-06T20:06:27.560Z,97340.91
2019-03-06T20:08:56.630Z,97343.50
2019-03-06T20:11:25.726Z,97340.69
2019-03-06T20:13:57.911Z,97338.67
2019-03-06T20:16:26.970Z,97340.84
2019-03-06T20:18:56.116Z,97336.88
2019-03-06T20:21:25.318Z,97340.34
2019-03-06T20:23:54.366Z,97324.91
2019-03-06T20:26:23.357Z,97320.27
2019-03-06T20:28:52.423Z,97320.83
2019-03-06T20:31:21.439Z,97306.77
2019-03-06T20:33:50.538Z,97322.90
2019-03-06T20:36:19.561Z,97307.72
2019-03-06T20:38:48.604Z,97327.12
2019-03-06T20:41:17.684Z,97321.50
2019-03-06T20:43:46.838Z,97324.77
2019-03-06T20:46:15.967Z,97320.89
2019-03-06T20:48:45.054Z,97326.73
2019-03-06T20:51:14.099Z,97334.25
2019-03-06T20:53:43.178Z,97324.73
2019-03-06T20:56:12.365Z,97321.73
2019-03-06T20:58:41.544Z,97320.88
2019-03-06T21:01:10.620Z,97309.61
2019-03-06T21:03:39.651Z,97306.38
2019-03-06T21:06:08.996Z,97304.61
2019-03-06T21:08:38.058Z,97294.01
2019-03-06T21:11:07.116Z,97300.38
2019-03-06T21:13:36.138Z,97303.04
2019-03-06T21:16:05.199Z,97300.30
2019-03-06T21:18:34.251Z,97304.63
2019-03-06T21:21:03.327Z,97311.34
2019-03-06T21:23:32.393Z,97309.87
2019-03-06T21:26:01.465Z,97301.08
2019-03-06T21:28:30.536Z,97303.58
2019-03-06T21:30:59.596Z,97303.59
2019-03-06T21:33:28.634Z,97305.95
2019-03-06T21:35:57.948Z,97295.18
2019-03-06T21:38:27.016Z,97291.20
2019-03-06T21:40:56.158Z,97286.33
2019-03-06T21:43:25.169Z,97284.61
2019-03-06T21:45:54.298Z,97280.73
2019-03-06T21:48:23.355Z,97285.41
2019-03-06T21:50:52.698Z,97287.41
2019-03-06T21:53:21.770Z,97274.03
2019-03-06T21:55:50.821Z,97277.47
2019-03-06T21:58:19.905Z,97276.59
2019-03-06T22:00:48.965Z,97270.53
2019-03-06T22:03:18.031Z,97268.44
2019-03-06T22:05:48.105Z,97266.14
2019-03-06T22:08:17.197Z,97270.83
2019-03-06T22:10:46.273Z,97263.51
2019-03-06T22:13:15.356Z,97264.44
2019-03-06T22:15:44.406Z,97266.20
2019-03-06T22:18:13.515Z,97256.44
2019-03-06T22:20:42.857Z,97252.07
2019-03-06T22:23:11.904Z,97245.56
2019-03-06T22:25:42.156Z,97235.14
2019-03-06T22:28:11.272Z,97234.99
2019-03-06T22:30:40.313Z,97228.73
2019-03-06T22:33:09.371Z,97228.22
2019-03-06T22:35:38.683Z,97219.78
2019-03-06T22:38:07.773Z,97219.34
2019-03-06T22:40:36.856Z,97207.69
2019-03-06T22:43:05.980Z,97208.00
2019-03-06T22:45:34.989Z,97209.09
2019-03-06T22:48:05.271Z,97204.48
2019-03-06T22:50:34.468Z,97208.72
2019-03-06T22:53:03.567Z,97208.05
2019-03-06T22:55:32.595Z,97202.29
2019-03-06T22:58:02.739Z,97196.80
2019-03-06T23:00:51.751Z,97193.48
2019-03-06T23:03:21.301Z,97181.91
2019-03-06T23:05:53.216Z,97194.14
2019-03-06T23:08:23.695Z,97186.22
2019-03-06T23:10:52.916Z,97183.42
2019-03-06T23:13:22.105Z,97181.91
2019-03-06T23:15:51.147Z,97173.43
2019-03-06T23:18:20.235Z,97168.53
2019-03-06T23:20:49.317Z,97159.69
2019-03-06T23:23:18.348Z,97159.38
2019-03-06T23:25:47.382Z,97153.23
2019-03-06T23:28:16.570Z,97148.25
2019-03-06T23:30:45.611Z,97139.27
2019-03-06T23:33:14.681Z,97146.05
2019-03-06T23:35:43.673Z,97139.48
2019-03-06T23:38:15.041Z,97137.52
2019-03-06T23:40:44.121Z,97129.07
2019-03-06T23:43:14.170Z,97129.31
2019-03-06T23:45:43.169Z,97125.94
2019-03-06T23:48:12.264Z,97112.00
2019-03-06T23:50:41.263Z,97112.52
2019-03-06T23:53:12.028Z,97096.37
2019-03-06T23:55:41.248Z,97099.45
2019-03-06T23:58:10.349Z,97095.83
